Terminal Aerodrome Forecast
Issued by NWS Brownsville, TX

Home | Current Version | Previous Version | Text Only | Print | Product List | Glossary On
Versions: 1 2 3 4 5 6 7 8 9 10 11 12
084
FTUS44 KBRO 232335
TAFHRL
TAF
KHRL 232335Z 2400/2424 16018G25KT P6SM SKC
     FM240300 15010KT P6SM FEW020
     FM241500 16014G19KT P6SM SCT030
     FM241800 15020G25KT P6SM FEW045=

USA.gov is the U.S. government's official web portal to all federal, state and local government web resources and services.